Time;durP1;ratioP1;P1;durP2;ratioP2;P2;SDS_P1;SDS_P2;PMS_P1;PMS_P2;Temp;Humidity;BMP_temperature;BMP_pressure;BME280_temperature;BME280_humidity;BME280_pressure;Samples;Min_cycle;Max_cycle;Signal;HPM_P1;HPM_P2
2021/03/19 12:57:43;;;;;;;5.00;3.72;;;;;;;;;;5146875;27;20641;-76
2021/03/19 13:00:10;;;;;;;6.78;4.60;;;;;;;;;;5145329;27;20015;-77
2021/03/19 13:02:36;;;;;;;7.75;5.47;;;;;;;;;;5105643;28;20047;-77
2021/03/19 13:05:03;;;;;;;6.57;4.60;;;;;;;;;;5062638;22;20038;-76
2021/03/19 13:07:30;;;;;;;8.30;5.22;;;;;;;;;;5058392;28;20394;-75
2021/03/19 13:09:56;;;;;;;7.10;5.22;;;;;;;;;;5057421;28;20116;-75
2021/03/19 13:12:22;;;;;;;7.95;5.82;;;;;;;;;;5058330;28;20032;-76
2021/03/19 13:14:48;;;;;;;7.72;5.47;;;;;;;;;;5058378;28;20099;-74
2021/03/19 13:17:14;;;;;;;8.65;6.35;;;;;;;;;;5057054;28;20412;-74
2021/03/19 13:19:40;;;;;;;9.13;5.70;;;;;;;;;;5055734;28;20052;-74
2021/03/19 13:22:06;;;;;;;7.95;5.20;;;;;;;;;;5055769;28;20436;-74
2021/03/19 13:24:32;;;;;;;9.38;5.63;;;;;;;;;;5058474;28;20113;-75
2021/03/19 13:26:58;;;;;;;7.57;4.82;;;;;;;;;;5056878;28;20021;-73
2021/03/19 13:29:24;;;;;;;8.13;5.20;;;;;;;;;;5054966;28;20033;-74
2021/03/19 13:31:50;;;;;;;12.88;5.10;;;;;;;;;;5055826;28;20031;-74
2021/03/19 13:34:16;;;;;;;8.38;4.57;;;;;;;;;;5056277;28;20044;-74
2021/03/19 13:36:42;;;;;;;8.63;4.88;;;;;;;;;;5058789;28;20051;-74
2021/03/19 13:39:09;;;;;;;10.65;7.45;;;;;;;;;;5058377;28;20029;-74
2021/03/19 13:41:37;;;;;;;7.43;4.50;;;;;;;;;;5053619;28;20053;-74
2021/03/19 13:44:04;;;;;;;7.43;4.85;;;;;;;;;;5046770;28;20021;-75
2021/03/19 13:46:31;;;;;;;8.55;4.60;;;;;;;;;;5048045;28;20033;-75
2021/03/19 13:48:57;;;;;;;6.97;4.57;;;;;;;;;;5028382;28;20033;-75
2021/03/19 13:51:23;;;;;;;7.00;4.18;;;;;;;;;;5050701;28;20104;-76
2021/03/19 13:53:49;;;;;;;6.40;3.67;;;;;;;;;;5054840;28;20120;-75
2021/03/19 13:56:19;;;;;;;7.57;4.40;;;;;;;;;;5056316;28;20024;-75
2021/03/19 13:58:45;;;;;;;5.80;4.38;;;;;;;;;;5055023;28;20041;-75
2021/03/19 14:01:11;;;;;;;5.95;3.40;;;;;;;;;;5056297;28;20447;-75
2021/03/19 14:03:37;;;;;;;6.00;2.85;;;;;;;;;;5053536;28;20036;-75
2021/03/19 14:06:04;;;;;;;5.72;3.40;;;;;;;;;;5057162;28;20028;-76
2021/03/19 14:08:31;;;;;;;6.32;3.92;;;;;;;;;;5045152;28;20025;-76
2021/03/19 14:10:59;;;;;;;7.75;5.38;;;;;;;;;;5042814;28;20105;-75
2021/03/19 14:13:26;;;;;;;8.02;5.20;;;;;;;;;;5041236;28;20036;-75
2021/03/19 14:15:52;;;;;;;6.25;4.68;;;;;;;;;;5044595;28;20104;-75
2021/03/19 14:18:19;;;;;;;8.75;5.50;;;;;;;;;;5044646;28;20021;-76
2021/03/19 14:20:49;;;;;;;8.05;4.80;;;;;;;;;;5043493;28;20633;-75
2021/03/19 14:23:16;;;;;;;7.47;4.78;;;;;;;;;;5042111;28;20174;-75
2021/03/19 14:25:42;;;;;;;6.53;4.10;;;;;;;;;;5043079;28;20017;-75
2021/03/19 14:28:09;;;;;;;11.57;6.05;;;;;;;;;;5041755;28;20021;-76
2021/03/19 14:30:36;;;;;;;12.45;6.38;;;;;;;;;;5040844;28;20032;-77
2021/03/19 14:33:02;;;;;;;11.05;6.03;;;;;;;;;;5044165;28;20021;-76
2021/03/19 14:35:30;;;;;;;7.28;4.88;;;;;;;;;;5033606;28;20048;-76
2021/03/19 14:37:56;;;;;;;8.18;5.57;;;;;;;;;;5030575;28;20029;-75
2021/03/19 14:40:33;;;;;;;8.35;5.20;;;;;;;;;;5034604;28;20107;-75
2021/03/19 14:42:59;;;;;;;9.15;5.68;;;;;;;;;;5032939;28;20095;-75
2021/03/19 14:45:26;;;;;;;8.10;5.20;;;;;;;;;;5034802;28;20030;-75
2021/03/19 14:47:52;;;;;;;8.80;5.47;;;;;;;;;;5037637;28;20030;-76
2021/03/19 14:50:19;;;;;;;7.57;4.75;;;;;;;;;;5037758;28;20040;-78
2021/03/19 14:52:46;;;;;;;6.25;4.55;;;;;;;;;;5037009;28;20036;-79
2021/03/19 14:55:13;;;;;;;8.15;5.45;;;;;;;;;;5037045;28;20025;-77
2021/03/19 14:57:39;;;;;;;10.10;5.20;;;;;;;;;;5037624;28;20032;-78
2021/03/19 15:00:07;;;;;;;7.78;5.07;;;;;;;;;;5038544;28;20085;-78
2021/03/19 15:02:33;;;;;;;8.48;4.80;;;;;;;;;;5041607;28;20025;-77
2021/03/19 15:04:59;;;;;;;7.55;4.50;;;;;;;;;;5044496;28;20095;-78
2021/03/19 15:07:25;;;;;;;7.55;4.97;;;;;;;;;;5036641;28;20143;-76
2021/03/19 15:09:51;;;;;;;8.27;5.55;;;;;;;;;;5029690;28;20610;-78
2021/03/19 15:12:17;;;;;;;7.50;5.38;;;;;;;;;;5044194;28;20021;-77
2021/03/19 15:14:43;;;;;;;8.57;5.22;;;;;;;;;;5042461;28;20433;-75
2021/03/19 15:17:09;;;;;;;8.32;4.72;;;;;;;;;;5037667;28;20138;-77
2021/03/19 15:19:36;;;;;;;7.78;5.18;;;;;;;;;;5039281;28;20052;-77
2021/03/19 15:22:02;;;;;;;7.82;4.43;;;;;;;;;;5047138;28;20048;-77
2021/03/19 15:24:30;;;;;;;5.53;3.83;;;;;;;;;;5049461;28;20025;-77
2021/03/19 15:26:56;;;;;;;5.78;4.05;;;;;;;;;;5031791;28;20056;-76
2021/03/19 15:29:22;;;;;;;4.35;3.05;;;;;;;;;;5028793;28;20467;-77
2021/03/19 15:31:48;;;;;;;6.03;3.70;;;;;;;;;;5039388;28;20110;-77
2021/03/19 15:34:15;;;;;;;6.32;4.28;;;;;;;;;;5048300;28;20125;-77
2021/03/19 15:36:41;;;;;;;6.30;4.03;;;;;;;;;;5034931;28;20091;-77
2021/03/19 15:39:07;;;;;;;5.93;3.95;;;;;;;;;;5032016;28;20022;-77
2021/03/19 15:41:33;;;;;;;5.65;3.28;;;;;;;;;;5035889;28;20441;-77
2021/03/19 15:43:59;;;;;;;5.25;3.15;;;;;;;;;;5038937;28;20053;-76
2021/03/19 15:46:28;;;;;;;6.38;4.10;;;;;;;;;;5034754;28;20060;-75
2021/03/19 15:48:54;;;;;;;8.73;5.45;;;;;;;;;;5033520;28;20032;-77
2021/03/19 15:51:20;;;;;;;6.95;4.18;;;;;;;;;;5034084;28;20422;-75
2021/03/19 15:53:46;;;;;;;6.22;3.85;;;;;;;;;;5034731;28;20045;-76
2021/03/19 15:56:12;;;;;;;6.22;3.53;;;;;;;;;;5032126;28;20029;-76
2021/03/19 15:58:39;;;;;;;6.55;3.58;;;;;;;;;;5033471;28;20025;-74
2021/03/19 16:01:06;;;;;;;6.90;3.72;;;;;;;;;;5035022;28;20017;-77
2021/03/19 16:03:32;;;;;;;10.40;5.38;;;;;;;;;;5035498;28;20029;-77
2021/03/19 16:05:58;;;;;;;12.80;7.32;;;;;;;;;;5036372;28;20377;-77
2021/03/19 16:08:29;;;;;;;7.95;4.22;;;;;;;;;;5026881;28;20394;-78
2021/03/19 16:10:55;;;;;;;6.45;4.28;;;;;;;;;;5042442;28;20028;-78
2021/03/19 16:13:22;;;;;;;7.65;4.60;;;;;;;;;;5041636;28;20502;-80
2021/03/19 16:15:48;;;;;;;6.10;3.92;;;;;;;;;;5036543;28;20029;-78
2021/03/19 16:18:16;;;;;;;6.57;3.65;;;;;;;;;;5028827;28;20450;-77
2021/03/19 16:20:43;;;;;;;3.15;1.75;;;;;;;;;;5034625;28;20022;-78
2021/03/19 16:23:09;;;;;;;2.97;1.80;;;;;;;;;;5035692;28;20026;-77
2021/03/19 16:25:36;;;;;;;3.38;2.13;;;;;;;;;;5029176;28;20390;-78
2021/03/19 16:28:02;;;;;;;3.58;1.98;;;;;;;;;;5032394;28;20025;-76
2021/03/19 16:30:31;;;;;;;4.35;2.28;;;;;;;;;;5032744;28;20037;-77
2021/03/19 16:32:57;;;;;;;4.15;1.65;;;;;;;;;;5038682;28;20013;-76
2021/03/19 16:35:25;;;;;;;6.78;1.92;;;;;;;;;;5036612;28;20026;-76
2021/03/19 16:37:51;;;;;;;3.22;2.00;;;;;;;;;;5040007;28;20029;-78
2021/03/19 16:40:18;;;;;;;5.43;2.33;;;;;;;;;;5036912;28;20025;-77
2021/03/19 16:42:44;;;;;;;3.40;2.00;;;;;;;;;;5040006;28;20030;-79
2021/03/19 16:45:10;;;;;;;4.05;2.60;;;;;;;;;;5022958;28;20021;-78
2021/03/19 16:47:37;;;;;;;4.63;2.35;;;;;;;;;;5032200;28;20116;-78
2021/03/19 16:50:05;;;;;;;4.65;2.33;;;;;;;;;;5034535;28;20125;-79
2021/03/19 16:52:31;;;;;;;5.18;2.92;;;;;;;;;;5030139;28;20154;-80
2021/03/19 16:54:57;;;;;;;4.70;2.53;;;;;;;;;;5030431;28;20036;-77
2021/03/19 16:57:23;;;;;;;4.93;2.72;;;;;;;;;;5032731;28;20896;-76
2021/03/19 16:59:49;;;;;;;5.38;3.28;;;;;;;;;;5029342;28;20025;-78
2021/03/19 17:02:15;;;;;;;4.55;2.83;;;;;;;;;;5029756;28;20493;-76
2021/03/19 17:04:42;;;;;;;6.63;2.95;;;;;;;;;;5026793;28;20061;-76
2021/03/19 17:07:08;;;;;;;5.97;3.15;;;;;;;;;;5027001;28;20100;-75
2021/03/19 17:09:34;;;;;;;5.70;3.20;;;;;;;;;;5026183;28;20481;-75
2021/03/19 17:12:00;;;;;;;6.53;3.08;;;;;;;;;;5026989;28;20030;-75
2021/03/19 17:14:26;;;;;;;3.33;2.60;;;;;;;;;;5026389;28;20032;-75
2021/03/19 17:16:52;;;;;;;8.32;5.88;;;;;;;;;;5027688;28;20055;-75
2021/03/19 17:19:18;;;;;;;7.13;2.63;;;;;;;;;;5028094;28;20037;-77
2021/03/19 17:21:44;;;;;;;4.68;3.20;;;;;;;;;;5033286;28;20036;-79
2021/03/19 17:24:10;;;;;;;7.18;4.43;;;;;;;;;;5037155;28;20033;-80
2021/03/19 17:26:36;;;;;;;5.63;3.55;;;;;;;;;;5052783;28;20040;-79
2021/03/19 17:29:02;;;;;;;5.53;3.67;;;;;;;;;;5059015;28;20037;-78
2021/03/19 17:31:29;;;;;;;6.18;3.22;;;;;;;;;;5051016;28;20022;-77
2021/03/19 17:33:55;;;;;;;6.97;3.95;;;;;;;;;;5051683;28;20013;-77
2021/03/19 17:36:21;;;;;;;4.97;3.20;;;;;;;;;;5035408;28;20037;-77
2021/03/19 17:38:47;;;;;;;4.78;3.00;;;;;;;;;;5029579;28;20021;-78
2021/03/19 17:41:13;;;;;;;4.35;2.72;;;;;;;;;;5029212;28;20088;-77
2021/03/19 17:43:39;;;;;;;5.28;3.25;;;;;;;;;;5027419;28;20025;-76
2021/03/19 17:46:08;;;;;;;4.75;2.90;;;;;;;;;;5029687;28;20017;-76
2021/03/19 17:48:34;;;;;;;5.55;3.40;;;;;;;;;;5031003;28;20533;-76
2021/03/19 17:51:02;;;;;;;5.13;3.08;;;;;;;;;;5029473;28;20025;-77
2021/03/19 17:53:29;;;;;;;5.53;3.42;;;;;;;;;;5032155;28;20470;-76
2021/03/19 17:55:56;;;;;;;5.07;3.30;;;;;;;;;;5031629;28;20099;-77
2021/03/19 17:58:22;;;;;;;5.80;3.50;;;;;;;;;;5030288;28;20045;-76
2021/03/19 18:00:48;;;;;;;4.10;2.50;;;;;;;;;;5031378;28;20021;-75
2021/03/19 18:03:14;;;;;;;4.65;3.00;;;;;;;;;;5031081;28;20092;-75
2021/03/19 18:05:40;;;;;;;5.60;2.92;;;;;;;;;;5030429;28;20045;-76
2021/03/19 18:08:07;;;;;;;5.13;2.80;;;;;;;;;;5032892;28;20021;-75
2021/03/19 18:10:34;;;;;;;5.30;3.30;;;;;;;;;;5035647;28;20044;-75
2021/03/19 18:13:00;;;;;;;5.40;3.15;;;;;;;;;;5033937;28;20021;-75
2021/03/19 18:15:27;;;;;;;5.10;3.05;;;;;;;;;;5033779;28;20025;-75
2021/03/19 18:17:53;;;;;;;5.25;3.30;;;;;;;;;;5032235;28;20112;-75
2021/03/19 18:20:20;;;;;;;4.50;3.25;;;;;;;;;;5030150;28;20034;-75
2021/03/19 18:22:47;;;;;;;5.85;3.10;;;;;;;;;;5030049;28;20025;-75
2021/03/19 18:25:13;;;;;;;4.97;2.95;;;;;;;;;;5030923;28;20033;-75
2021/03/19 18:27:39;;;;;;;5.95;3.25;;;;;;;;;;5028605;28;20028;-75
2021/03/19 18:30:06;;;;;;;5.57;3.42;;;;;;;;;;5030714;28;20056;-75
2021/03/19 18:32:33;;;;;;;7.00;4.03;;;;;;;;;;5028877;28;20432;-75
2021/03/19 18:34:59;;;;;;;7.30;5.03;;;;;;;;;;5027931;28;20045;-75
2021/03/19 18:37:26;;;;;;;10.52;5.93;;;;;;;;;;5027154;28;20044;-76
2021/03/19 18:39:52;;;;;;;10.88;6.75;;;;;;;;;;5028419;28;20053;-76
2021/03/19 18:42:21;;;;;;;8.35;5.72;;;;;;;;;;5020824;28;20041;-74
2021/03/19 18:44:47;;;;;;;17.58;10.25;;;;;;;;;;5028348;28;20021;-74
2021/03/19 18:47:13;;;;;;;18.65;11.25;;;;;;;;;;5029466;28;20142;-75
2021/03/19 18:49:39;;;;;;;24.33;13.25;;;;;;;;;;5029284;28;20371;-75
2021/03/19 18:52:06;;;;;;;22.45;13.18;;;;;;;;;;5029209;28;20087;-75
2021/03/19 18:54:32;;;;;;;18.05;10.38;;;;;;;;;;5029267;28;20034;-75
